40IL weather

Antique Aerodrome
Cornell, Illinois, United States

Public forecast

Using degrees Fahrenheit for public forecast. Weather courtesy of forecast.io.

METAR (pilot weather report)

Closest report is Pontiac Municipal Airport, 5.1 nm (9.5 km) SSE. Retrieved 2019/08/17 12:35 UTC (0 seconds ago):

KPNT 171235Z AUTO 00000KT 10SM BKN060 OVC080 21/21 A2995 RMK AO2 LTG DSNT SW T02130210

TAF (pilot weather forecast)

Closest forecast is Central Illinois Regional Airport at Bloomington-Normal, 33.8 nm (62.7 km) SSW. Retrieved 2019/08/17 12:24 UTC (5 minutes ago):

TAF KBMI 171122Z 1712/1812 15007KT P6SM VCSH OVC050 TEMPO 1713/1716 3SM TSRA BKN025CB FM171600 23009KT P6SM OVC050 FM180600 15007KT P6SM BKN250 FM180900 19009KT P6SM BKN250 WS020/23040KT